Time,TemperatureF,DewpointF,PressureIn,WindDirection,WindDirectionDegrees,WindSpeedMPH,WindSpeedGustMPH,Humidity,HourlyPrecipIn,Conditions,Clouds,dailyrainin,SolarRadiationWatts/m^2,SoftwareType,DateUTC
2013-04-20 00:02:00,45.0,42.0,-100.00,NW,309,3.0,10.0,89,0.11,,,0.60,1.000000,,2013-04-20 04:02:00,
2013-04-20 00:33:00,45.0,42.0,-100.00,NW,309,3.0,10.0,89,0.11,,,0.60,1.000000,,2013-04-20 04:33:00,
2013-04-20 00:43:00,45.0,42.0,-100.00,NW,309,3.0,10.0,89,0.11,,,0.60,1.000000,,2013-04-20 04:43:00,
2013-04-20 00:53:00,45.0,42.0,-100.00,NW,309,3.0,10.0,89,0.11,,,0.60,1.000000,,2013-04-20 04:53:00,
2013-04-20 01:02:00,45.0,40.0,-100.00,West,273,4.0,9.0,84,0.00,,,0.60,1.000000,,2013-04-20 05:02:00,
2013-04-20 01:22:00,45.0,40.0,-100.00,West,273,4.0,9.0,84,0.00,,,0.60,1.000000,,2013-04-20 05:22:00,
2013-04-20 01:32:00,45.0,40.0,-100.00,West,273,4.0,9.0,84,0.00,,,0.60,1.000000,,2013-04-20 05:32:00,
2013-04-20 01:43:00,45.0,40.0,-100.00,West,273,4.0,9.0,84,0.00,,,0.60,1.000000,,2013-04-20 05:43:00,
2013-04-20 01:52:00,45.0,40.0,-100.00,West,273,4.0,9.0,84,0.00,,,0.60,1.000000,,2013-04-20 05:52:00,
2013-04-20 02:32:00,42.0,38.0,-100.00,North,3,3.0,9.0,87,0.00,,,0.60,1.000000,,2013-04-20 06:32:00,
2013-04-20 02:42:00,42.0,38.0,-100.00,North,3,3.0,9.0,87,0.00,,,0.60,1.000000,,2013-04-20 06:42:00,
2013-04-20 02:52:00,42.0,38.0,-100.00,North,3,3.0,9.0,87,0.00,,,0.60,1.000000,,2013-04-20 06:52:00,
2013-04-20 03:01:00,42.0,38.0,-100.00,North,3,3.0,9.0,87,0.00,,,0.60,1.000000,,2013-04-20 07:01:00,
2013-04-20 03:02:00,42.0,39.0,-100.00,WNW,297,1.0,4.0,90,0.00,,,0.60,1.000000,,2013-04-20 07:02:00,
2013-04-20 03:32:00,42.0,39.0,-100.00,WNW,297,1.0,4.0,90,0.00,,,0.60,1.000000,,2013-04-20 07:32:00,
2013-04-20 03:42:00,42.0,39.0,-100.00,WNW,297,1.0,4.0,90,0.00,,,0.60,1.000000,,2013-04-20 07:42:00,
2013-04-20 03:52:00,42.0,39.0,-100.00,WNW,297,1.0,4.0,90,0.00,,,0.60,1.000000,,2013-04-20 07:52:00,
2013-04-20 04:02:00,41.0,39.0,-100.00,WSW,242,1.0,3.0,91,0.00,,,0.60,1.000000,,2013-04-20 08:02:00,
2013-04-20 04:32:00,41.0,39.0,-100.00,WSW,242,1.0,3.0,91,0.00,,,0.60,1.000000,,2013-04-20 08:32:00,
2013-04-20 04:42:00,41.0,39.0,-100.00,WSW,242,1.0,3.0,91,0.00,,,0.60,1.000000,,2013-04-20 08:42:00,
2013-04-20 04:52:00,41.0,39.0,-100.00,WSW,242,1.0,3.0,91,0.00,,,0.60,1.000000,,2013-04-20 08:52:00,
2013-04-20 05:02:00,41.0,38.0,-100.00,WSW,251,3.0,8.0,90,0.00,,,0.60,1.000000,,2013-04-20 09:02:00,
2013-04-20 05:33:00,41.0,38.0,-100.00,WSW,251,3.0,8.0,90,0.00,,,0.60,1.000000,,2013-04-20 09:33:00,
2013-04-20 05:43:00,41.0,38.0,-100.00,WSW,251,3.0,8.0,90,0.00,,,0.60,1.000000,,2013-04-20 09:43:00,
2013-04-20 05:53:00,41.0,38.0,-100.00,WSW,251,3.0,8.0,90,0.00,,,0.60,1.000000,,2013-04-20 09:53:00,
2013-04-20 06:02:00,44.0,30.0,-100.00,WNW,287,6.0,13.0,58,0.00,,,0.60,1.000000,,2013-04-20 10:02:00,
2013-04-20 06:33:00,44.0,30.0,-100.00,WNW,287,6.0,13.0,58,0.00,,,0.60,1.000000,,2013-04-20 10:33:00,
2013-04-20 06:42:00,44.0,30.0,-100.00,WNW,287,6.0,13.0,58,0.00,,,0.60,1.000000,,2013-04-20 10:42:00,
2013-04-20 06:53:00,44.0,30.0,-100.00,WNW,287,6.0,13.0,58,0.00,,,0.60,1.000000,,2013-04-20 10:53:00,
2013-04-20 07:02:00,44.0,27.0,-100.00,West,262,7.0,18.0,51,0.00,,,0.60,9.000000,,2013-04-20 11:02:00,
2013-04-20 07:32:00,44.0,27.0,-100.00,West,262,7.0,18.0,51,0.00,,,0.60,9.000000,,2013-04-20 11:32:00,
2013-04-20 07:42:00,44.0,27.0,-100.00,West,262,7.0,18.0,51,0.00,,,0.60,9.000000,,2013-04-20 11:42:00,
2013-04-20 07:53:00,44.0,27.0,-100.00,West,262,7.0,18.0,51,0.00,,,0.60,9.000000,,2013-04-20 11:53:00,
2013-04-20 08:02:00,45.0,27.0,-100.00,West,260,8.0,15.0,49,0.00,,,0.60,79.000000,,2013-04-20 12:02:00,
2013-04-20 08:32:00,45.0,27.0,-100.00,West,260,8.0,15.0,49,0.00,,,0.60,79.000000,,2013-04-20 12:32:00,
2013-04-20 08:42:00,45.0,27.0,-100.00,West,260,8.0,15.0,49,0.00,,,0.60,79.000000,,2013-04-20 12:42:00,
2013-04-20 08:52:00,45.0,27.0,-100.00,West,260,8.0,15.0,49,0.00,,,0.60,79.000000,,2013-04-20 12:52:00,
2013-04-20 09:02:00,46.0,26.0,-100.00,West,259,7.0,14.0,45,0.00,,,0.60,208.000000,,2013-04-20 13:02:00,
2013-04-20 09:22:00,46.0,26.0,-100.00,West,259,7.0,14.0,45,0.00,,,0.60,208.000000,,2013-04-20 13:22:00,
2013-04-20 09:32:00,46.0,26.0,-100.00,West,259,7.0,14.0,45,0.00,,,0.60,208.000000,,2013-04-20 13:32:00,
2013-04-20 09:42:00,46.0,26.0,-100.00,West,259,7.0,14.0,45,0.00,,,0.60,208.000000,,2013-04-20 13:42:00,
2013-04-20 09:52:00,46.0,26.0,-100.00,West,259,7.0,14.0,45,0.00,,,0.60,208.000000,,2013-04-20 13:52:00,
2013-04-20 10:02:00,49.0,26.0,-100.00,WSW,251,10.0,21.0,41,0.00,,,0.60,380.000000,,2013-04-20 14:02:00,
2013-04-20 10:22:00,49.0,26.0,-100.00,WSW,251,10.0,21.0,41,0.00,,,0.60,380.000000,,2013-04-20 14:22:00,
2013-04-20 10:32:00,49.0,26.0,-100.00,WSW,251,10.0,21.0,41,0.00,,,0.60,380.000000,,2013-04-20 14:32:00,
2013-04-20 10:42:00,49.0,26.0,-100.00,WSW,251,10.0,21.0,41,0.00,,,0.60,380.000000,,2013-04-20 14:42:00,
2013-04-20 10:52:00,49.0,26.0,-100.00,WSW,251,10.0,21.0,41,0.00,,,0.60,380.000000,,2013-04-20 14:52:00,
2013-04-20 11:02:00,49.0,24.0,-100.00,West,268,10.0,20.0,37,0.00,,,0.60,590.000000,,2013-04-20 15:02:00,
2013-04-20 11:34:00,49.0,24.0,-100.00,West,268,10.0,20.0,37,0.00,,,0.60,590.000000,,2013-04-20 15:34:00,
2013-04-20 11:43:00,49.0,24.0,-100.00,West,268,10.0,20.0,37,0.00,,,0.60,590.000000,,2013-04-20 15:43:00,
2013-04-20 11:53:00,49.0,24.0,-100.00,West,268,10.0,20.0,37,0.00,,,0.60,590.000000,,2013-04-20 15:53:00,
2013-04-20 12:02:00,50.0,23.0,-100.00,West,275,9.0,19.0,35,0.01,,,0.61,569.000000,,2013-04-20 16:02:00,
2013-04-20 12:23:00,50.0,23.0,-100.00,West,275,9.0,19.0,35,0.01,,,0.61,569.000000,,2013-04-20 16:23:00,
2013-04-20 12:33:00,50.0,23.0,-100.00,West,275,9.0,19.0,35,0.01,,,0.61,569.000000,,2013-04-20 16:33:00,
2013-04-20 12:42:00,50.0,23.0,-100.00,West,275,9.0,19.0,35,0.01,,,0.61,569.000000,,2013-04-20 16:42:00,
2013-04-20 12:53:00,50.0,23.0,-100.00,West,275,9.0,19.0,35,0.01,,,0.61,569.000000,,2013-04-20 16:53:00,
2013-04-20 13:02:00,50.0,23.0,-100.00,West,265,9.0,23.0,34,0.00,,,0.61,429.000000,,2013-04-20 17:02:00,
2013-04-20 13:23:00,50.0,23.0,-100.00,West,265,9.0,23.0,34,0.00,,,0.61,429.000000,,2013-04-20 17:23:00,
2013-04-20 13:33:00,50.0,23.0,-100.00,West,265,9.0,23.0,34,0.00,,,0.61,429.000000,,2013-04-20 17:33:00,
2013-04-20 13:42:00,50.0,23.0,-100.00,West,265,9.0,23.0,34,0.00,,,0.61,429.000000,,2013-04-20 17:42:00,
2013-04-20 13:52:00,50.0,23.0,-100.00,West,265,9.0,23.0,34,0.00,,,0.61,429.000000,,2013-04-20 17:52:00,
2013-04-20 14:02:00,51.0,24.0,-100.00,West,264,13.0,29.0,34,0.00,,,0.61,673.000000,,2013-04-20 18:02:00,
2013-04-20 14:22:00,51.0,24.0,-100.00,West,264,13.0,29.0,34,0.00,,,0.61,673.000000,,2013-04-20 18:22:00,
2013-04-20 14:32:00,51.0,24.0,-100.00,West,264,13.0,29.0,34,0.00,,,0.61,673.000000,,2013-04-20 18:32:00,
2013-04-20 14:42:00,51.0,24.0,-100.00,West,264,13.0,29.0,34,0.00,,,0.61,673.000000,,2013-04-20 18:42:00,
2013-04-20 14:52:00,51.0,24.0,-100.00,West,264,13.0,29.0,34,0.00,,,0.61,673.000000,,2013-04-20 18:52:00,
2013-04-20 15:02:00,50.0,22.0,-100.00,West,278,11.0,22.0,33,0.00,,,0.61,414.000000,,2013-04-20 19:02:00,
2013-04-20 15:22:00,50.0,22.0,-100.00,West,278,11.0,22.0,33,0.00,,,0.61,414.000000,,2013-04-20 19:22:00,
2013-04-20 15:32:00,50.0,22.0,-100.00,West,278,11.0,22.0,33,0.00,,,0.61,414.000000,,2013-04-20 19:32:00,
2013-04-20 15:42:00,50.0,22.0,-100.00,West,278,11.0,22.0,33,0.00,,,0.61,414.000000,,2013-04-20 19:42:00,
2013-04-20 15:52:00,50.0,22.0,-100.00,West,278,11.0,22.0,33,0.00,,,0.61,414.000000,,2013-04-20 19:52:00,
2013-04-20 16:32:00,49.0,22.0,-100.00,WNW,287,12.0,29.0,34,0.00,,,0.61,357.000000,,2013-04-20 20:32:00,
2013-04-20 16:42:00,49.0,22.0,-100.00,WNW,287,12.0,29.0,34,0.00,,,0.61,357.000000,,2013-04-20 20:42:00,
2013-04-20 16:52:00,49.0,22.0,-100.00,WNW,287,12.0,29.0,34,0.00,,,0.61,357.000000,,2013-04-20 20:52:00,
2013-04-20 17:01:00,49.0,22.0,-100.00,WNW,287,12.0,29.0,34,0.00,,,0.61,357.000000,,2013-04-20 21:01:00,
2013-04-20 17:02:00,45.0,21.0,-100.00,West,279,10.0,26.0,38,0.00,,,0.61,430.000000,,2013-04-20 21:02:00,
2013-04-20 17:22:00,45.0,21.0,-100.00,West,279,10.0,26.0,38,0.00,,,0.61,430.000000,,2013-04-20 21:22:00,
2013-04-20 17:33:00,45.0,21.0,-100.00,West,279,10.0,26.0,38,0.00,,,0.61,430.000000,,2013-04-20 21:33:00,
2013-04-20 17:43:00,45.0,21.0,-100.00,West,279,10.0,26.0,38,0.00,,,0.61,430.000000,,2013-04-20 21:43:00,
2013-04-20 17:53:00,45.0,21.0,-100.00,West,279,10.0,26.0,38,0.00,,,0.61,430.000000,,2013-04-20 21:53:00,
2013-04-20 18:02:00,43.0,19.0,-100.00,West,276,13.0,26.0,38,0.00,,,0.61,121.000000,,2013-04-20 22:02:00,
2013-04-20 18:33:00,43.0,19.0,-100.00,West,276,13.0,26.0,38,0.00,,,0.61,121.000000,,2013-04-20 22:33:00,
2013-04-20 18:42:00,43.0,19.0,-100.00,West,276,13.0,26.0,38,0.00,,,0.61,121.000000,,2013-04-20 22:42:00,
2013-04-20 18:53:00,43.0,19.0,-100.00,West,276,13.0,26.0,38,0.00,,,0.61,121.000000,,2013-04-20 22:53:00,
2013-04-20 19:32:00,41.0,17.0,-100.00,West,278,9.0,25.0,38,0.00,,,0.61,46.000000,,2013-04-20 23:32:00,
2013-04-20 19:42:00,41.0,17.0,-100.00,West,278,9.0,25.0,38,0.00,,,0.61,46.000000,,2013-04-20 23:42:00,
2013-04-20 19:53:00,41.0,17.0,-100.00,West,278,9.0,25.0,38,0.00,,,0.61,46.000000,,2013-04-20 23:53:00,
2013-04-20 20:01:00,41.0,17.0,-100.00,West,278,9.0,25.0,38,0.00,,,0.61,46.000000,,2013-04-21 00:01:00,
2013-04-20 20:22:00,40.0,19.0,-100.00,West,270,7.0,14.0,42,0.00,,,0.61,9.000000,,2013-04-21 00:22:00,
2013-04-20 20:32:00,40.0,19.0,-100.00,West,270,7.0,14.0,42,0.00,,,0.61,9.000000,,2013-04-21 00:32:00,
2013-04-20 20:42:00,40.0,19.0,-100.00,West,270,7.0,14.0,42,0.00,,,0.61,9.000000,,2013-04-21 00:42:00,
2013-04-20 20:52:00,40.0,19.0,-100.00,West,270,7.0,14.0,42,0.00,,,0.61,9.000000,,2013-04-21 00:52:00,
2013-04-20 21:01:00,40.0,19.0,-100.00,West,270,7.0,14.0,42,0.00,,,0.61,9.000000,,2013-04-21 01:01:00,
2013-04-20 21:02:00,38.0,18.0,-100.00,WNW,288,8.0,17.0,43,0.00,,,0.61,1.000000,,2013-04-21 01:02:00,
2013-04-20 21:32:00,38.0,18.0,-100.00,WNW,288,8.0,17.0,43,0.00,,,0.61,1.000000,,2013-04-21 01:32:00,
2013-04-20 21:42:00,38.0,18.0,-100.00,WNW,288,8.0,17.0,43,0.00,,,0.61,1.000000,,2013-04-21 01:42:00,
2013-04-20 21:52:00,38.0,18.0,-100.00,WNW,288,8.0,17.0,43,0.00,,,0.61,1.000000,,2013-04-21 01:52:00,
2013-04-20 22:22:00,36.0,21.0,-100.00,West,281,8.0,21.0,54,0.00,,,0.37,1.000000,,2013-04-21 02:22:00,
2013-04-20 22:32:00,36.0,21.0,-100.00,West,281,8.0,21.0,54,0.00,,,0.37,1.000000,,2013-04-21 02:32:00,
2013-04-20 22:42:00,36.0,21.0,-100.00,West,281,8.0,21.0,54,0.00,,,0.37,1.000000,,2013-04-21 02:42:00,
2013-04-20 22:52:00,36.0,21.0,-100.00,West,281,8.0,21.0,54,0.00,,,0.37,1.000000,,2013-04-21 02:52:00,
2013-04-20 23:01:00,36.0,21.0,-100.00,West,281,8.0,21.0,54,0.00,,,0.37,1.000000,,2013-04-21 03:01:00,
2013-04-20 23:02:00,35.0,18.0,-100.00,West,276,8.0,14.0,50,0.00,,,0.12,1.000000,,2013-04-21 03:02:00,
2013-04-20 23:22:00,35.0,18.0,-100.00,West,276,8.0,14.0,50,0.00,,,0.12,1.000000,,2013-04-21 03:22:00,
2013-04-20 23:33:00,35.0,18.0,-100.00,West,276,8.0,14.0,50,0.00,,,0.12,1.000000,,2013-04-21 03:33:00,
2013-04-20 23:42:00,35.0,18.0,-100.00,West,276,8.0,14.0,50,0.00,,,0.12,1.000000,,2013-04-21 03:42:00,
2013-04-20 23:53:00,35.0,18.0,-100.00,West,276,8.0,14.0,50,0.00,,,0.12,1.000000,,2013-04-21 03:53:00,